^^
Datos históricos de la estación: Murcia-Puente Tocinos
Diario Informe para Enero 3, 2019 Unidades:  Métrico    Inglés   Ambas
Diario Semanal Mensual Anual Configurable
  Máximo: Mínimo: Media:
Temperatura: 14.2 °C 5.6 °C 9.3 °C
Punto de rocio: 8.2 °C 1.9 °C 5.2 °C
Humedad: 90% 55% 76%
Velocidad viento: 11.3km/h 0.0km/h 5.5km/h
Racha viento: 20.9km/h - -
Viento- - SSE
Presión: 1029.8 hPa 1025.8 hPa -
Precipitación: 0.0 mm    
Historical Graphs
 
 
Tabla de datos para Enero 3, 2019
Hora Temperatura Punto de rocio Presión Viento Velocidad viento Racha viento Humedad Intensidad lluvia(por hora) Nubes
00:00 9.5 °C 7.1 °C 1026.0 hPa SSW 8.0 km/h 12.9 km/h 85% 0.0 mm CLR
00:05 9.4 °C 7.0 °C 1025.8 hPa South 7.6 km/h 10.3 km/h 85% 0.0 mm CLR
00:10 9.3 °C 6.9 °C 1025.8 hPa SSW 6.9 km/h 9.3 km/h 85% 0.0 mm CLR
00:15 9.3 °C 7.1 °C 1025.8 hPa SSW 6.9 km/h 13.0 km/h 86% 0.0 mm CLR
00:20 9.3 °C 7.1 °C 1025.9 hPa South 7.6 km/h 7.4 km/h 86% 0.0 mm CLR
00:25 9.3 °C 7.1 °C 1025.9 hPa South 7.6 km/h 7.4 km/h 86% 0.0 mm CLR
00:30 9.2 °C 7.0 °C 1025.9 hPa SSW 5.8 km/h 7.4 km/h 86% 0.0 mm CLR
00:35 9.2 °C 7.0 °C 1026.1 hPa SSW 5.8 km/h 7.4 km/h 86% 0.0 mm CLR
00:40 9.2 °C 7.0 °C 1026.1 hPa SSW 5.8 km/h 5.8 km/h 86% 0.0 mm CLR
00:45 9.3 °C 7.1 °C 1026.1 hPa SSW 5.8 km/h 5.6 km/h 86% 0.0 mm CLR
00:50 9.1 °C 6.6 °C 1026.3 hPa SSW 3.9 km/h 7.4 km/h 84% 0.0 mm CLR
00:55 8.8 °C 6.1 °C 1026.3 hPa South 3.9 km/h 7.4 km/h 83% 0.0 mm CLR
01:00 8.4 °C 5.9 °C 1026.3 hPa South 3.2 km/h 8.0 km/h 84% 0.0 mm CLR
01:05 8.0 °C 5.6 °C 1026.2 hPa SSE 4.7 km/h 9.3 km/h 85% 0.0 mm CLR
01:10 7.8 °C 5.6 °C 1026.2 hPa South 6.4 km/h 7.4 km/h 86% 0.0 mm CLR
01:15 7.8 °C 5.8 °C 1026.2 hPa SSW 6.4 km/h 10.0 km/h 87% 0.0 mm CLR
01:20 8.0 °C 6.1 °C 1026.2 hPa SW 6.9 km/h 11.1 km/h 88% 0.0 mm CLR
01:25 8.3 °C 6.4 °C 1026.2 hPa SW 6.9 km/h 11.1 km/h 88% 0.0 mm CLR
01:30 8.5 °C 6.4 °C 1026.2 hPa SW 8.0 km/h 11.3 km/h 87% 0.0 mm CLR
01:35 8.6 °C 6.4 °C 1026.2 hPa SW 8.4 km/h 9.3 km/h 86% 0.0 mm CLR
01:40 8.7 °C 6.5 °C 1026.2 hPa SW 6.4 km/h 9.3 km/h 86% 0.0 mm CLR
01:45 8.7 °C 6.3 °C 1026.2 hPa SSW 6.4 km/h 9.3 km/h 85% 0.0 mm CLR
01:50 8.7 °C 6.3 °C 1026.2 hPa SSW 6.4 km/h 9.3 km/h 85% 0.0 mm CLR
01:55 8.6 °C 6.2 °C 1026.2 hPa SSW 6.4 km/h 9.3 km/h 85% 0.0 mm CLR
02:00 8.6 °C 6.2 °C 1026.2 hPa South 8.0 km/h 9.7 km/h 85% 0.0 mm CLR
02:05 8.5 °C 6.1 °C 1026.3 hPa South 6.9 km/h 7.6 km/h 85% 0.0 mm CLR
02:10 8.4 °C 6.0 °C 1026.3 hPa South 6.4 km/h 7.4 km/h 85% 0.0 mm CLR
02:15 8.3 °C 5.9 °C 1026.3 hPa South 6.4 km/h 7.4 km/h 85% 0.0 mm CLR
02:20 8.1 °C 5.7 °C 1026.6 hPa South 5.0 km/h 5.6 km/h 85% 0.0 mm CLR
02:25 7.9 °C 5.6 °C 1026.6 hPa South 5.0 km/h 3.9 km/h 85% 0.0 mm CLR
02:30 7.8 °C 5.6 °C 1026.6 hPa South 3.2 km/h 5.6 km/h 86% 0.0 mm CLR
02:35 7.8 °C 5.6 °C 1026.6 hPa South 3.2 km/h 7.4 km/h 86% 0.0 mm CLR
02:40 7.7 °C 5.7 °C 1026.6 hPa SSW 5.0 km/h 7.4 km/h 87% 0.0 mm CLR
02:45 7.7 °C 5.7 °C 1026.6 hPa SSW 5.0 km/h 7.6 km/h 87% 0.0 mm CLR
02:50 7.6 °C 5.4 °C 1026.6 hPa SSE 5.0 km/h 7.6 km/h 86% 0.0 mm CLR
02:55 7.4 °C 5.2 °C 1026.6 hPa SSE 5.0 km/h 7.4 km/h 86% 0.0 mm CLR
03:00 7.2 °C 5.0 °C 1026.6 hPa SSE 4.8 km/h 8.0 km/h 86% 0.0 mm CLR
03:05 7.1 °C 5.1 °C 1026.7 hPa SSE 5.0 km/h 7.4 km/h 87% 0.0 mm CLR
03:10 6.9 °C 4.9 °C 1026.7 hPa SSE 5.0 km/h 8.4 km/h 87% 0.0 mm CLR
03:15 6.7 °C 4.8 °C 1026.7 hPa SSE 5.0 km/h 8.4 km/h 88% 0.0 mm CLR
03:20 6.6 °C 4.8 °C 1026.7 hPa South 5.8 km/h 9.3 km/h 88% 0.0 mm CLR
03:25 6.5 °C 4.8 °C 1026.7 hPa SSE 5.8 km/h 9.3 km/h 89% 0.0 mm CLR
03:30 6.4 °C 4.7 °C 1026.7 hPa SSE 6.9 km/h 11.1 km/h 89% 0.0 mm CLR
03:35 6.4 °C 4.7 °C 1026.7 hPa South 6.9 km/h 8.4 km/h 89% 0.0 mm CLR
03:40 6.4 °C 4.7 °C 1026.7 hPa South 6.9 km/h 9.5 km/h 89% 0.0 mm CLR
03:45 6.3 °C 4.6 °C 1026.7 hPa South 6.9 km/h 11.1 km/h 89% 0.0 mm CLR
03:50 6.3 °C 4.8 °C 1026.8 hPa South 6.9 km/h 9.5 km/h 90% 0.0 mm CLR
03:55 6.3 °C 4.8 °C 1026.8 hPa SSW 6.9 km/h 9.3 km/h 90% 0.0 mm CLR
04:00 6.3 °C 4.8 °C 1026.8 hPa South 8.0 km/h 11.3 km/h 90% 0.0 mm CLR
04:05 6.3 °C 4.8 °C 1026.7 hPa South 6.9 km/h 9.3 km/h 90% 0.0 mm CLR
04:10 6.3 °C 4.8 °C 1026.7 hPa South 6.9 km/h 9.3 km/h 90% 0.0 mm CLR
04:15 6.4 °C 4.7 °C 1026.7 hPa SSW 6.9 km/h 11.1 km/h 89% 0.0 mm CLR
04:20 6.4 °C 4.7 °C 1026.6 hPa South 7.6 km/h 11.1 km/h 89% 0.0 mm CLR
04:25 6.4 °C 4.7 °C 1026.6 hPa SSW 7.6 km/h 11.1 km/h 89% 0.0 mm CLR
04:30 6.4 °C 4.6 °C 1026.6 hPa SSW 8.7 km/h 10.0 km/h 88% 0.0 mm CLR
04:35 6.4 °C 4.6 °C 1026.5 hPa South 8.7 km/h 11.1 km/h 88% 0.0 mm CLR
04:40 6.4 °C 4.6 °C 1026.5 hPa SSW 7.6 km/h 13.0 km/h 88% 0.0 mm CLR
04:45 6.4 °C 4.4 °C 1026.5 hPa South 7.6 km/h 11.1 km/h 87% 0.0 mm CLR
04:50 6.4 °C 4.4 °C 1026.4 hPa SSW 8.4 km/h 13.0 km/h 87% 0.0 mm CLR
04:55 6.4 °C 4.4 °C 1026.4 hPa SSW 8.4 km/h 13.0 km/h 87% 0.0 mm CLR
05:00 6.4 °C 4.2 °C 1026.4 hPa SSW 9.7 km/h 14.5 km/h 86% 0.0 mm CLR
05:05 6.4 °C 4.1 °C 1026.4 hPa SW 9.5 km/h 13.0 km/h 85% 0.0 mm CLR
05:10 6.4 °C 3.9 °C 1026.4 hPa SSW 9.5 km/h 16.1 km/h 84% 0.0 mm CLR
05:15 6.6 °C 3.9 °C 1026.4 hPa SSW 9.5 km/h 13.0 km/h 83% 0.0 mm CLR
05:20 6.6 °C 3.9 °C 1026.3 hPa SSW 10.3 km/h 11.1 km/h 83% 0.0 mm CLR
05:25 6.6 °C 3.6 °C 1026.3 hPa SSW 10.3 km/h 13.0 km/h 81% 0.0 mm CLR
05:30 6.6 °C 3.6 °C 1026.3 hPa SSW 9.5 km/h 13.0 km/h 81% 0.0 mm CLR
05:35 6.4 °C 3.2 °C 1026.4 hPa SW 9.5 km/h 11.1 km/h 80% 0.0 mm CLR
05:40 6.4 °C 3.2 °C 1026.4 hPa South 9.5 km/h 11.1 km/h 80% 0.0 mm CLR
05:45 6.3 °C 3.1 °C 1026.4 hPa South 9.5 km/h 9.3 km/h 80% 0.0 mm CLR
05:50 6.2 °C 3.0 °C 1026.6 hPa SSW 8.4 km/h 13.0 km/h 80% 0.0 mm CLR
05:55 6.1 °C 2.9 °C 1026.6 hPa SSW 8.4 km/h 13.0 km/h 80% 0.0 mm CLR
06:00 6.1 °C 2.9 °C 1026.6 hPa SSW 9.7 km/h 12.9 km/h 80% 0.0 mm CLR
06:05 6.0 °C 2.8 °C 1026.8 hPa SSW 9.5 km/h 13.0 km/h 80% 0.0 mm CLR
06:10 5.9 °C 2.7 °C 1026.8 hPa SSW 8.7 km/h 11.1 km/h 80% 0.0 mm CLR
06:15 5.9 °C 2.7 °C 1026.8 hPa SW 8.7 km/h 14.8 km/h 80% 0.0 mm CLR
06:20 5.8 °C 2.6 °C 1026.9 hPa SSW 10.0 km/h 16.4 km/h 80% 0.0 mm CLR
06:25 5.8 °C 2.6 °C 1026.9 hPa SSW 10.0 km/h 14.8 km/h 80% 0.0 mm CLR
06:30 5.8 °C 2.8 °C 1026.9 hPa SW 10.3 km/h 14.8 km/h 81% 0.0 mm CLR
06:35 5.7 °C 2.7 °C 1026.9 hPa SSW 10.3 km/h 14.8 km/h 81% 0.0 mm CLR
06:40 5.7 °C 2.7 °C 1026.9 hPa SSW 10.3 km/h 14.8 km/h 81% 0.0 mm CLR
06:45 5.7 °C 2.9 °C 1026.9 hPa South 10.3 km/h 14.8 km/h 82% 0.0 mm CLR
06:50 5.6 °C 2.8 °C 1027.0 hPa SW 10.0 km/h 16.7 km/h 82% 0.0 mm CLR
06:55 5.6 °C 2.8 °C 1027.0 hPa SSW 10.0 km/h 13.0 km/h 82% 0.0 mm CLR
07:00 5.6 °C 2.8 °C 1027.0 hPa SSW 11.3 km/h 16.1 km/h 82% 0.0 mm CLR
07:05 5.6 °C 2.8 °C 1027.0 hPa SSW 10.3 km/h 16.7 km/h 82% 0.0 mm CLR
07:10 5.6 °C 2.8 °C 1027.0 hPa South 9.7 km/h 14.5 km/h 82% 0.0 mm CLR
07:15 5.7 °C 2.5 °C 1027.0 hPa SSW 10.0 km/h 14.8 km/h 80% 0.0 mm CLR
07:20 5.7 °C 2.3 °C 1027.2 hPa SSW 8.7 km/h 14.8 km/h 79% 0.0 mm FEW
07:25 5.8 °C 2.4 °C 1027.2 hPa SSW 8.7 km/h 16.7 km/h 79% 0.0 mm CLR
07:30 5.8 °C 2.3 °C 1027.2 hPa SSW 10.0 km/h 11.1 km/h 78% 0.0 mm FEW
07:35 5.8 °C 2.3 °C 1027.2 hPa SW 10.0 km/h 13.0 km/h 78% 0.0 mm CLR
07:40 5.7 °C 2.2 °C 1027.2 hPa SSW 8.7 km/h 11.1 km/h 78% 0.0 mm FEW
07:45 5.9 °C 2.0 °C 1027.2 hPa SW 8.7 km/h 18.5 km/h 76% 0.0 mm CLR
07:50 6.0 °C 2.1 °C 1027.4 hPa WNW 9.5 km/h 7.4 km/h 76% 0.0 mm SCT
07:55 6.0 °C 1.9 °C 1027.4 hPa WSW 9.5 km/h 14.8 km/h 75% 0.0 mm SCT
08:00 6.1 °C 2.0 °C 1027.4 hPa SW 8.0 km/h 20.9 km/h 75% 0.0 mm CLR
08:05 6.2 °C 1.9 °C 1027.5 hPa SW 7.6 km/h 14.8 km/h 74% 0.0 mm
08:10 6.2 °C 1.9 °C 1027.5 hPa South 8.4 km/h 7.4 km/h 74% 0.0 mm SCT
08:15 6.2 °C 1.9 °C 1027.5 hPa SSW 8.4 km/h 10.3 km/h 74% 0.0 mm
08:20 6.0 °C 1.9 °C 1027.8 hPa SW 7.6 km/h 13.0 km/h 75% 0.0 mm SCT
08:25 5.9 °C 2.0 °C 1027.8 hPa South 7.6 km/h 5.8 km/h 76% 0.0 mm
08:30 5.9 °C 2.0 °C 1027.8 hPa SSW 6.9 km/h 9.3 km/h 76% 0.0 mm SCT
08:35 5.9 °C 2.0 °C 1027.9 hPa South 6.9 km/h 8.4 km/h 76% 0.0 mm
08:40 6.0 °C 2.1 °C 1027.9 hPa South 6.9 km/h 9.3 km/h 76% 0.0 mm SCT
08:45 6.0 °C 2.1 °C 1027.9 hPa SSW 6.9 km/h 11.1 km/h 76% 0.0 mm
08:50 5.8 °C 1.9 °C 1028.2 hPa SSE 6.9 km/h 9.5 km/h 76% 0.0 mm SCT
08:55 5.7 °C 2.0 °C 1028.2 hPa SW 6.9 km/h 9.3 km/h 77% 0.0 mm
09:00 5.7 °C 2.0 °C 1028.2 hPa South 8.0 km/h 9.7 km/h 77% 0.0 mm CLR
09:05 5.7 °C 2.0 °C 1028.4 hPa SSE 6.9 km/h 9.3 km/h 77% 0.0 mm
09:10 5.7 °C 2.2 °C 1028.4 hPa SSW 6.4 km/h 11.1 km/h 78% 0.0 mm SCT
09:15 5.8 °C 2.1 °C 1028.4 hPa South 6.4 km/h 9.3 km/h 77% 0.0 mm
09:20 5.9 °C 2.3 °C 1028.7 hPa SSW 6.9 km/h 7.4 km/h 78% 0.0 mm SCT
09:25 6.0 °C 2.3 °C 1028.7 hPa South 6.9 km/h 7.4 km/h 77% 0.0 mm
09:30 6.2 °C 2.3 °C 1028.7 hPa South 5.8 km/h 10.0 km/h 76% 0.0 mm SCT
09:35 6.3 °C 2.4 °C 1028.8 hPa South 5.8 km/h 9.3 km/h 76% 0.0 mm
09:40 6.4 °C 2.3 °C 1028.8 hPa South 8.0 km/h 9.7 km/h 75% 0.0 mm SCT
09:45 6.6 °C 2.5 °C 1028.8 hPa SSW 6.4 km/h 11.1 km/h 75% 0.0 mm
09:50 6.6 °C 2.5 °C 1029.0 hPa SSW 7.6 km/h 9.3 km/h 75% 0.0 mm SCT
09:55 6.7 °C 2.4 °C 1029.0 hPa South 7.6 km/h 9.3 km/h 74% 0.0 mm
10:00 6.7 °C 2.4 °C 1029.0 hPa SSW 8.0 km/h 11.3 km/h 74% 0.0 mm CLR
10:05 6.8 °C 2.3 °C 1029.1 hPa SSW 7.6 km/h 11.1 km/h 73% 0.0 mm
10:10 6.9 °C 2.4 °C 1029.1 hPa SW 8.4 km/h 7.6 km/h 73% 0.0 mm SCT
10:15 7.1 °C 2.4 °C 1029.1 hPa South 8.4 km/h 9.5 km/h 72% 0.0 mm
10:20 7.3 °C 2.4 °C 1029.3 hPa SW 6.4 km/h 9.3 km/h 71% 0.0 mm SCT
10:25 7.4 °C 2.3 °C 1029.3 hPa SSW 6.4 km/h 11.1 km/h 70% 0.0 mm
10:30 7.7 °C 2.4 °C 1029.3 hPa South 6.9 km/h 7.4 km/h 69% 0.0 mm SCT
10:35 7.9 °C 2.3 °C 1029.5 hPa SW 6.9 km/h 11.1 km/h 68% 0.0 mm
10:40 7.9 °C 2.3 °C 1029.5 hPa SSW 6.4 km/h 7.4 km/h 68% 0.0 mm SCT
10:45 8.1 °C 2.6 °C 1029.5 hPa SSW 6.4 km/h 13.0 km/h 68% 0.0 mm
10:50 8.2 °C 2.8 °C 1029.5 hPa SW 7.6 km/h 9.3 km/h 69% 0.0 mm SCT
10:55 8.4 °C 3.1 °C 1029.5 hPa SSW 7.6 km/h 11.1 km/h 69% 0.0 mm
11:00 8.6 °C 3.2 °C 1029.5 hPa SSW 8.0 km/h 12.9 km/h 69% 0.0 mm CLR
11:05 8.6 °C 2.8 °C 1029.5 hPa SSW 7.6 km/h 9.5 km/h 67% 0.0 mm
11:10 8.7 °C 2.7 °C 1029.5 hPa SSW 8.4 km/h 9.3 km/h 66% 0.0 mm SCT
11:15 8.8 °C 2.8 °C 1029.5 hPa SSW 8.4 km/h 7.6 km/h 66% 0.0 mm
11:20 8.9 °C 2.7 °C 1029.8 hPa SSW 4.7 km/h 11.1 km/h 65% 0.0 mm SCT
11:25 9.1 °C 2.9 °C 1029.8 hPa SW 4.7 km/h 7.4 km/h 65% 0.0 mm
11:30 9.4 °C 2.9 °C 1029.8 hPa SSE 6.4 km/h 11.1 km/h 64% 0.0 mm SCT
11:35 9.8 °C 3.1 °C 1029.5 hPa SSW 6.4 km/h 13.0 km/h 63% 0.0 mm
11:40 9.9 °C 3.2 °C 1029.5 hPa South 7.6 km/h 9.3 km/h 63% 0.0 mm SCT
11:45 10.1 °C 3.4 °C 1029.5 hPa SSW 7.6 km/h 11.1 km/h 63% 0.0 mm
11:50 10.1 °C 3.4 °C 1029.3 hPa SSW 7.6 km/h 11.1 km/h 63% 0.0 mm SCT
11:55 10.2 °C 3.2 °C 1029.3 hPa SW 7.6 km/h 9.3 km/h 62% 0.0 mm
12:00 10.3 °C 3.3 °C 1029.3 hPa SW 8.0 km/h 14.5 km/h 62% 0.0 mm CLR
12:05 10.3 °C 3.3 °C 1029.2 hPa SW 8.4 km/h 11.1 km/h 62% 0.0 mm
12:10 10.4 °C 3.4 °C 1029.2 hPa SSW 6.9 km/h 14.8 km/h 62% 0.0 mm SCT
12:15 10.6 °C 3.6 °C 1029.2 hPa SW 6.9 km/h 7.4 km/h 62% 0.0 mm
12:20 10.9 °C 3.7 °C 1028.9 hPa SSW 6.9 km/h 9.5 km/h 61% 0.0 mm SCT
12:25 11.2 °C 3.7 °C 1028.9 hPa South 6.9 km/h 11.1 km/h 60% 0.0 mm
12:30 11.4 °C 3.7 °C 1028.9 hPa SSW 6.9 km/h 7.4 km/h 59% 0.0 mm SCT
12:35 11.6 °C 3.6 °C 1028.7 hPa SSW 6.9 km/h 13.0 km/h 58% 0.0 mm FEW
12:40 11.7 °C 3.7 °C 1028.7 hPa SSE 7.6 km/h 11.1 km/h 58% 0.0 mm SCT
12:45 11.9 °C 3.9 °C 1028.7 hPa SSW 7.6 km/h 11.1 km/h 58% 0.0 mm FEW
12:50 11.9 °C 3.9 °C 1028.5 hPa South 7.6 km/h 9.3 km/h 58% 0.0 mm BKN
12:55 12.1 °C 3.8 °C 1028.5 hPa SSW 7.6 km/h 9.3 km/h 57% 0.0 mm FEW
13:00 12.2 °C 3.9 °C 1028.5 hPa South 8.0 km/h 9.7 km/h 57% 0.0 mm FEW
13:05 12.4 °C 3.8 °C 1028.2 hPa SW 6.9 km/h 9.3 km/h 56% 0.0 mm FEW
13:10 12.5 °C 3.9 °C 1028.2 hPa SSE 5.8 km/h 9.3 km/h 56% 0.0 mm BKN
13:15 12.7 °C 3.9 °C 1028.2 hPa SSW 5.8 km/h 9.5 km/h 55% 0.0 mm FEW
13:20 12.8 °C 4.2 °C 1027.9 hPa SE 5.0 km/h 7.4 km/h 56% 0.0 mm -RA
13:25 12.9 °C 4.1 °C 1027.9 hPa SSW 5.0 km/h 9.3 km/h 55% 0.0 mm SCT
13:30 13.1 °C 4.3 °C 1027.9 hPa SSE 6.4 km/h 11.1 km/h 55% 0.0 mm -RA
13:35 13.0 °C 4.4 °C 1027.8 hPa SSW 6.4 km/h 9.3 km/h 56% 0.0 mm SCT
13:40 12.9 °C 4.3 °C 1027.8 hPa SW 7.6 km/h 11.1 km/h 56% 0.0 mm -RA
13:45 12.9 °C 4.6 °C 1027.8 hPa South 7.6 km/h 7.4 km/h 57% 0.0 mm SCT
13:50 13.1 °C 4.5 °C 1027.7 hPa SE 6.4 km/h 9.3 km/h 56% 0.0 mm -RA
13:55 13.1 °C 4.8 °C 1027.7 hPa SSE 6.4 km/h 9.3 km/h 57% 0.0 mm SCT
14:00 13.2 °C 4.8 °C 1027.7 hPa SE 8.0 km/h 11.3 km/h 57% 0.0 mm SCT
14:05 13.1 °C 5.0 °C 1027.5 hPa South 6.4 km/h 9.3 km/h 58% 0.0 mm SCT
14:10 13.0 °C 4.9 °C 1027.5 hPa SE 6.4 km/h 9.3 km/h 58% 0.0 mm -RA
14:15 13.0 °C 5.2 °C 1027.5 hPa SE 6.4 km/h 7.4 km/h 59% 0.0 mm SCT
14:20 13.0 °C 5.2 °C 1027.4 hPa SE 6.4 km/h 7.4 km/h 59% 0.0 mm -RA
14:25 13.1 °C 5.5 °C 1027.4 hPa ESE 6.4 km/h 9.3 km/h 60% 0.0 mm SCT
14:30 13.1 °C 5.5 °C 1027.4 hPa SE 5.8 km/h 9.3 km/h 60% 0.0 mm -RA
14:35 13.2 °C 5.6 °C 1027.2 hPa SE 5.8 km/h 7.4 km/h 60% 0.0 mm SCT
14:40 13.2 °C 5.8 °C 1027.2 hPa SE 3.9 km/h 7.4 km/h 61% 0.0 mm -RA
14:45 13.3 °C 5.9 °C 1027.2 hPa SSE 3.9 km/h 6.4 km/h 61% 0.0 mm SCT
14:50 13.3 °C 5.9 °C 1027.3 hPa SSE 3.9 km/h 7.4 km/h 61% 0.0 mm BKN
14:55 13.2 °C 5.8 °C 1027.3 hPa SSE 3.9 km/h 7.6 km/h 61% 0.0 mm SCT
15:00 13.2 °C 6.1 °C 1027.3 hPa SSE 4.8 km/h 9.7 km/h 62% 0.0 mm SCT
15:05 13.1 °C 6.0 °C 1027.3 hPa SSE 5.0 km/h   62% 0.0 mm SCT
15:10 13.2 °C 6.1 °C 1027.3 hPa SSE 2.9 km/h   62% 0.0 mm BKN
15:15 13.3 °C 5.9 °C 1027.3 hPa SSE 2.9 km/h   61% 0.0 mm FEW
15:20 13.3 °C 6.2 °C 1027.3 hPa Calm   3.9 km/h 62% 0.0 mm BKN
15:25 13.4 °C 6.3 °C 1027.3 hPa Calm   5.6 km/h 62% 0.0 mm FEW
15:30 13.4 °C 6.3 °C 1027.3 hPa ENE 2.9 km/h 3.7 km/h 62% 0.0 mm BKN
15:35 13.5 °C 6.3 °C 1027.2 hPa ENE 2.9 km/h   62% 0.0 mm FEW
15:40 13.6 °C 6.4 °C 1027.2 hPa Calm   5.8 km/h 62% 0.0 mm BKN
15:45 13.6 °C 6.4 °C 1027.2 hPa Calm   5.6 km/h 62% 0.0 mm FEW
15:50 13.6 °C 6.7 °C 1027.2 hPa ENE 3.2 km/h 7.4 km/h 63% 0.0 mm BKN
15:55 13.6 °C 6.7 °C 1027.2 hPa East 3.2 km/h 5.6 km/h 63% 0.0 mm FEW
16:00 13.6 °C 6.7 °C 1027.2 hPa East 3.2 km/h 4.8 km/h 63% 0.0 mm FEW
16:05 13.7 °C 6.8 °C 1027.2 hPa East 4.7 km/h 5.8 km/h 63% 0.0 mm FEW
16:10 13.7 °C 6.8 °C 1027.2 hPa ENE 2.9 km/h 5.6 km/h 63% 0.0 mm BKN
16:15 13.8 °C 7.1 °C 1027.2 hPa ENE 2.9 km/h   64% 0.0 mm
16:20 13.9 °C 7.2 °C 1027.2 hPa ENE 2.3 km/h   64% 0.0 mm BKN
16:25 13.9 °C 7.2 °C 1027.2 hPa ENE 2.3 km/h   64% 0.0 mm
16:30 14.1 °C 7.6 °C 1027.2 hPa Calm   5.6 km/h 65% 0.0 mm BKN
16:35 14.1 °C 7.6 °C 1027.2 hPa Calm   11.1 km/h 65% 0.0 mm
16:40 14.2 °C 7.7 °C 1027.2 hPa NNE 6.4 km/h 7.4 km/h 65% 0.0 mm BKN
16:45 14.2 °C 7.7 °C 1027.2 hPa ENE 6.4 km/h 7.4 km/h 65% 0.0 mm
16:50 14.2 °C 7.7 °C 1027.3 hPa ENE 4.7 km/h 5.6 km/h 65% 0.0 mm SCT
16:55 14.2 °C 7.7 °C 1027.3 hPa NE 4.7 km/h 7.4 km/h 65% 0.0 mm
17:00 14.2 °C 7.7 °C 1027.3 hPa NE 3.2 km/h 8.0 km/h 65% 0.0 mm CLR
17:05 14.1 °C 7.8 °C 1027.3 hPa NE 3.9 km/h 7.4 km/h 66% 0.0 mm
17:10 14.1 °C 7.8 °C 1027.3 hPa NE 3.9 km/h 9.5 km/h 66% 0.0 mm SCT
17:15 14.0 °C 7.9 °C 1027.3 hPa NNE 3.9 km/h 8.4 km/h 67% 0.0 mm
17:20 13.9 °C 7.9 °C 1027.2 hPa NE 4.7 km/h 5.6 km/h 67% 0.0 mm SCT
17:25 13.8 °C 7.8 °C 1027.2 hPa NE 4.7 km/h   67% 0.0 mm
17:30 13.8 °C 8.0 °C 1027.2 hPa NE 2.9 km/h 5.6 km/h 68% 0.0 mm SCT
17:35 13.7 °C 7.9 °C 1027.3 hPa NE 2.9 km/h 5.8 km/h 68% 0.0 mm
17:40 13.6 °C 7.8 °C 1027.3 hPa NE 3.9 km/h 7.4 km/h 68% 0.0 mm SCT
17:45 13.5 °C 7.9 °C 1027.3 hPa NE 3.9 km/h 3.7 km/h 69% 0.0 mm
17:50 13.4 °C 7.8 °C 1027.3 hPa NE 3.9 km/h 5.6 km/h 69% 0.0 mm FEW
17:55 13.3 °C 7.7 °C 1027.3 hPa NE 3.9 km/h 5.6 km/h 69% 0.0 mm
18:00 13.3 °C 7.9 °C 1027.3 hPa NE 3.2 km/h 8.0 km/h 70% 0.0 mm CLR
18:05 13.2 °C 7.8 °C 1027.4 hPa NE 3.2 km/h 5.6 km/h 70% 0.0 mm CLR
18:10 13.2 °C 7.8 °C 1027.4 hPa ESE 4.7 km/h 7.4 km/h 70% 0.0 mm FEW
18:15 12.9 °C 7.8 °C 1027.4 hPa ESE 4.7 km/h 5.6 km/h 71% 0.0 mm CLR
18:20 12.8 °C 7.9 °C 1027.5 hPa ESE 3.2 km/h 5.6 km/h 72% 0.0 mm FEW
18:25 12.8 °C 7.9 °C 1027.5 hPa ESE 3.2 km/h 3.7 km/h 72% 0.0 mm CLR
18:30 12.7 °C 7.8 °C 1027.5 hPa ESE 2.3 km/h   72% 0.0 mm FEW
18:35 12.7 °C 7.8 °C 1027.6 hPa ESE 2.3 km/h   72% 0.0 mm CLR
18:40 12.6 °C 7.9 °C 1027.6 hPa Calm     73% 0.0 mm FEW
18:45 12.6 °C 7.9 °C 1027.6 hPa Calm   4.7 km/h 73% 0.0 mm CLR
18:50 12.4 °C 7.7 °C 1027.7 hPa ESE 2.3 km/h 7.4 km/h 73% 0.0 mm FEW
18:55 12.3 °C 7.6 °C 1027.7 hPa ESE 2.3 km/h 3.7 km/h 73% 0.0 mm CLR
19:00 12.2 °C 7.7 °C 1027.7 hPa ESE 3.2 km/h   74% 0.0 mm CLR
19:05 12.0 °C 7.5 °C 1027.8 hPa ESE 2.9 km/h   74% 0.0 mm CLR
19:10 11.8 °C 7.5 °C 1027.8 hPa Calm     75% 0.0 mm FEW
19:15 11.7 °C 7.6 °C 1027.8 hPa Calm   1.9 km/h 76% 0.0 mm CLR
19:20 11.6 °C 7.7 °C 1027.8 hPa Calm     77% 0.0 mm FEW
19:25 11.4 °C 7.5 °C 1027.8 hPa Calm   3.7 km/h 77% 0.0 mm CLR
19:30 11.3 °C 7.8 °C 1027.8 hPa ESE 2.3 km/h 1.9 km/h 79% 0.0 mm FEW
19:35 11.2 °C 7.9 °C 1027.9 hPa ESE 2.3 km/h 3.7 km/h 80% 0.0 mm CLR
19:40 11.1 °C 7.9 °C 1027.9 hPa ESE 2.9 km/h 5.6 km/h 81% 0.0 mm FEW
19:45 11.1 °C 7.9 °C 1027.9 hPa ESE 2.9 km/h 7.4 km/h 81% 0.0 mm CLR
19:50 11.1 °C 8.2 °C 1028.0 hPa ESE 3.2 km/h 7.4 km/h 82% 0.0 mm FEW
19:55 11.0 °C 8.1 °C 1028.0 hPa ESE 3.2 km/h 9.3 km/h 82% 0.0 mm CLR
20:00 10.8 °C 7.9 °C 1028.0 hPa ESE 4.8 km/h 11.3 km/h 82% 0.0 mm CLR
20:05 10.7 °C 7.9 °C 1028.0 hPa ESE 5.8 km/h 7.4 km/h 83% 0.0 mm CLR
20:10 10.5 °C 7.9 °C 1028.0 hPa ESE 3.9 km/h 5.8 km/h 84% 0.0 mm FEW
20:15 10.4 °C 7.8 °C 1028.0 hPa East 3.9 km/h 7.6 km/h 84% 0.0 mm CLR
20:20 10.4 °C 8.0 °C 1028.0 hPa East 4.7 km/h 5.8 km/h 85% 0.0 mm FEW
20:25 10.4 °C 8.0 °C 1028.0 hPa ESE 4.7 km/h 5.6 km/h 85% 0.0 mm CLR
20:30 10.4 °C 8.0 °C 1028.0 hPa ESE 3.9 km/h 5.6 km/h 85% 0.0 mm FEW
20:35 10.3 °C 7.9 °C 1028.0 hPa ESE 3.9 km/h 7.4 km/h 85% 0.0 mm CLR
20:40 10.2 °C 7.8 °C 1028.0 hPa ESE 3.2 km/h 7.4 km/h 85% 0.0 mm FEW
20:45 10.2 °C 7.8 °C 1028.0 hPa ESE 3.2 km/h 3.9 km/h 85% 0.0 mm CLR
20:50 10.1 °C 7.7 °C 1028.0 hPa ESE 3.9 km/h 5.6 km/h 85% 0.0 mm FEW
20:55 9.9 °C 7.5 °C 1028.0 hPa ESE 3.9 km/h 5.6 km/h 85% 0.0 mm CLR
21:00 9.8 °C 7.6 °C 1028.0 hPa ESE 3.2 km/h 6.4 km/h 86% 0.0 mm CLR
21:05 9.7 °C 7.4 °C 1028.0 hPa ESE 3.2 km/h 5.6 km/h 86% 0.0 mm CLR
21:10 9.6 °C 7.4 °C 1028.0 hPa ESE 2.3 km/h   86% 0.0 mm FEW
21:15 9.5 °C 7.3 °C 1028.0 hPa ESE 2.3 km/h   86% 0.0 mm CLR
21:20 9.4 °C 7.2 °C 1028.1 hPa Calm     86% 0.0 mm CLR
21:25 9.3 °C 7.2 °C 1028.1 hPa Calm     87% 0.0 mm CLR
21:30 9.2 °C 7.2 °C 1028.1 hPa Calm     87% 0.0 mm CLR
21:35 9.1 °C 7.1 °C 1028.1 hPa Calm     87% 0.0 mm CLR
21:40 9.1 °C 7.1 °C 1028.1 hPa Calm     87% 0.0 mm CLR
21:45 8.9 °C 7.0 °C 1028.1 hPa Calm     88% 0.0 mm CLR
21:50 8.9 °C 7.0 °C 1028.2 hPa Calm     88% 0.0 mm CLR
21:55 8.8 °C 6.8 °C 1028.2 hPa Calm   4.7 km/h 87% 0.0 mm CLR
22:00 8.7 °C 6.7 °C 1028.2 hPa ESE 1.6 km/h 8.0 km/h 87% 0.0 mm CLR
22:05 8.5 °C 6.4 °C 1028.2 hPa SSE 2.3 km/h 5.6 km/h 87% 0.0 mm CLR
22:10 8.4 °C 6.3 °C 1028.2 hPa SSE 4.7 km/h 3.7 km/h 87% 0.0 mm CLR
22:15 8.4 °C 6.3 °C 1028.2 hPa SSE 4.7 km/h 5.6 km/h 87% 0.0 mm CLR
22:20 8.4 °C 6.3 °C 1028.2 hPa SSE 2.9 km/h 3.7 km/h 87% 0.0 mm CLR
22:25 8.5 °C 6.4 °C 1028.2 hPa SSE 2.9 km/h 7.4 km/h 87% 0.0 mm CLR
22:30 8.5 °C 6.4 °C 1028.2 hPa SSE 2.9 km/h   87% 0.0 mm CLR
22:35 8.6 °C 6.6 °C 1028.1 hPa SSE 2.9 km/h 5.6 km/h 87% 0.0 mm CLR
22:40 8.6 °C 6.6 °C 1028.1 hPa SSE 2.3 km/h   87% 0.0 mm CLR
22:45 8.6 °C 6.4 °C 1028.1 hPa SSE 2.3 km/h   86% 0.0 mm CLR
22:50 8.6 °C 6.4 °C 1028.1 hPa Calm     86% 0.0 mm CLR
22:55 8.4 °C 6.2 °C 1028.1 hPa Calm     86% 0.0 mm CLR
23:00 8.4 °C 6.2 °C 1028.1 hPa Calm     86% 0.0 mm CLR
23:05 8.3 °C 6.1 °C 1028.2 hPa Calm     86% 0.0 mm CLR
23:10 8.2 °C 6.0 °C 1028.2 hPa Calm     86% 0.0 mm CLR
23:15 8.1 °C 5.9 °C 1028.2 hPa Calm     86% 0.0 mm CLR
23:20 7.9 °C 5.9 °C 1028.3 hPa Calm     87% 0.0 mm CLR
23:25 7.9 °C 6.1 °C 1028.3 hPa Calm   3.7 km/h 88% 0.0 mm CLR
23:30 7.9 °C 6.1 °C 1028.3 hPa Calm     88% 0.0 mm CLR
23:35 7.9 °C 6.1 °C 1028.2 hPa Calm   3.9 km/h 88% 0.0 mm CLR
23:40 7.8 °C 5.9 °C 1028.2 hPa SE 2.3 km/h 4.7 km/h 88% 0.0 mm CLR
23:45 7.8 °C 5.9 °C 1028.2 hPa SE 2.3 km/h 5.8 km/h 88% 0.0 mm CLR
23:50 7.7 °C 5.8 °C 1028.2 hPa SSE 3.9 km/h 7.4 km/h 88% 0.0 mm CLR
23:55 7.7 °C 5.7 °C 1028.2 hPa SSE 3.9 km/h 7.4 km/h 87% 0.0 mm CLR
Murcia-Puente Tocinos, España
Compliments of Weather Underground - 2.75 mb

La estación de MeteoMurcia.com, publica sus datos en los siguientes proyectos:

Weather Underground PWS IMURCIAP2 Meteoclimatic www.awekas.at

W3Counter
Web Analytics